createdAt,value
2018-07-06T00:04:52.791Z,0
2018-07-06T00:09:52.690Z,0
2018-07-06T00:14:53.059Z,0
2018-07-06T00:19:52.822Z,0
2018-07-06T00:24:52.734Z,0
2018-07-06T00:29:53.463Z,0
2018-07-06T00:34:52.587Z,0
2018-07-06T00:39:53.413Z,0
2018-07-06T00:44:52.882Z,0
2018-07-06T00:49:53.366Z,0
2018-07-06T00:54:53.107Z,0
2018-07-06T00:59:53.348Z,0
2018-07-06T01:04:52.911Z,0
2018-07-06T01:09:52.725Z,0
2018-07-06T01:14:53.135Z,0
2018-07-06T01:19:53.009Z,0
2018-07-06T01:24:53.190Z,0
2018-07-06T01:29:53.362Z,0
2018-07-06T01:34:53.205Z,0
2018-07-06T01:39:53.404Z,0
2018-07-06T01:44:53.201Z,0
2018-07-06T01:49:52.788Z,0
2018-07-06T01:54:53.433Z,0
2018-07-06T01:59:53.126Z,0
2018-07-06T02:04:53.299Z,0
2018-07-06T02:09:53.364Z,0
2018-07-06T02:14:53.024Z,0
2018-07-06T02:19:52.815Z,0
2018-07-06T02:24:53.576Z,0
2018-07-06T02:29:53.268Z,0
2018-07-06T02:34:52.912Z,0
2018-07-06T02:39:53.672Z,0
2018-07-06T02:44:53.358Z,0
2018-07-06T02:49:53.590Z,0
2018-07-06T02:54:52.908Z,0
2018-07-06T02:59:53.507Z,0
2018-07-06T03:04:53.303Z,0
2018-07-06T03:09:53.129Z,0
2018-07-06T03:14:53.020Z,0
2018-07-06T03:19:52.749Z,0
2018-07-06T03:24:53.450Z,0
2018-07-06T03:29:53.101Z,0
2018-07-06T03:34:53.538Z,0
2018-07-06T03:39:53.217Z,0
2018-07-06T03:44:52.942Z,5
2018-07-06T03:49:53.721Z,5
2018-07-06T03:54:53.588Z,10
2018-07-06T03:59:53.329Z,10
2018-07-06T04:04:53.308Z,11.3
2018-07-06T04:09:53.531Z,11.3
2018-07-06T04:14:53.303Z,8.7
2018-07-06T04:19:53.156Z,8.7
2018-07-06T04:24:52.910Z,16.3
2018-07-06T04:29:52.767Z,16.3
2018-07-06T04:34:53.107Z,19.2
2018-07-06T04:39:53.768Z,19.2
2018-07-06T04:44:53.471Z,28.6
2018-07-06T04:49:53.302Z,28.6
2018-07-06T04:54:53.146Z,26.2
2018-07-06T04:59:52.910Z,26.2
2018-07-06T05:04:53.257Z,31.2
2018-07-06T05:09:53.077Z,31.2
2018-07-06T05:14:53.206Z,34.6
2018-07-06T05:19:53.079Z,34.6
2018-07-06T05:24:53.816Z,32.6
2018-07-06T05:29:53.754Z,32.6
2018-07-06T05:34:53.701Z,32
2018-07-06T05:39:53.466Z,32
2018-07-06T05:44:53.310Z,38.4
2018-07-06T05:49:53.077Z,38.4
2018-07-06T05:54:52.902Z,53.4
2018-07-06T05:59:53.101Z,53.4
2018-07-06T06:04:53.952Z,47.2
2018-07-06T06:09:53.192Z,47.2
2018-07-06T06:14:53.066Z,45
2018-07-06T06:19:53.860Z,45
2018-07-06T06:24:53.282Z,36.2
2018-07-06T06:29:52.945Z,36.2
2018-07-06T06:34:53.932Z,25.7
2018-07-06T06:39:53.614Z,25.7
2018-07-06T06:44:53.291Z,29.2
2018-07-06T06:49:53.146Z,29.2
2018-07-06T06:54:53.174Z,51.5
2018-07-06T06:59:53.861Z,51.5
2018-07-06T07:04:53.760Z,45.5
2018-07-06T07:09:53.390Z,45.5
2018-07-06T07:14:53.225Z,34
2018-07-06T07:19:53.014Z,34
2018-07-06T07:24:53.784Z,32.6
2018-07-06T07:29:53.533Z,32.6
2018-07-06T07:34:53.540Z,66.2
2018-07-06T07:39:53.345Z,66.2
2018-07-06T07:44:53.040Z,61.5
2018-07-06T07:49:53.974Z,61.5
2018-07-06T07:54:53.089Z,83.6
2018-07-06T07:59:53.913Z,83.6
2018-07-06T08:04:53.823Z,89.4
2018-07-06T08:09:53.789Z,89.4
2018-07-06T08:14:53.821Z,225.2
2018-07-06T08:19:53.780Z,225.2
2018-07-06T08:24:53.630Z,189.8
2018-07-06T08:29:53.360Z,189.8
2018-07-06T08:34:53.155Z,138.8
2018-07-06T08:39:53.963Z,138.8
2018-07-06T08:44:53.795Z,216.8
2018-07-06T08:49:53.554Z,216.8
2018-07-06T08:54:53.523Z,756
2018-07-06T08:59:53.134Z,756
2018-07-06T09:04:53.925Z,441.5
2018-07-06T09:09:53.704Z,441.5
2018-07-06T09:14:53.586Z,202
2018-07-06T09:19:53.917Z,202
2018-07-06T09:24:53.774Z,801.2
2018-07-06T09:29:53.570Z,801.2
2018-07-06T09:34:53.480Z,803.6
2018-07-06T09:39:53.475Z,803.6
2018-07-06T09:44:53.576Z,767.2
2018-07-06T09:49:53.516Z,767.2
2018-07-06T09:54:53.584Z,776.3
2018-07-06T09:59:53.405Z,776.3
2018-07-06T10:04:54.328Z,793.8
2018-07-06T10:09:53.232Z,793.8
2018-07-06T10:14:53.991Z,794.2
2018-07-06T10:19:54.016Z,794.2
2018-07-06T10:24:53.803Z,811
2018-07-06T10:29:53.533Z,811
2018-07-06T10:34:53.356Z,809.5
2018-07-06T10:39:54.315Z,809.5
2018-07-06T10:44:54.166Z,816
2018-07-06T10:49:53.894Z,816
2018-07-06T10:54:53.766Z,818.4
2018-07-06T10:59:53.441Z,818.4
2018-07-06T11:04:54.303Z,815.6
2018-07-06T11:09:53.565Z,815.6
2018-07-06T11:14:53.335Z,819.4
2018-07-06T11:19:54.070Z,819.4
2018-07-06T11:24:53.824Z,827
2018-07-06T11:29:53.554Z,827
2018-07-06T11:34:54.264Z,827.2
2018-07-06T11:39:53.963Z,827.2
2018-07-06T11:44:53.991Z,823.3
2018-07-06T11:49:54.003Z,823.3
2018-07-06T11:54:53.603Z,812.7
2018-07-06T11:59:53.443Z,812.7
2018-07-06T12:04:54.297Z,470
2018-07-06T12:09:53.691Z,470
2018-07-06T12:14:53.598Z,352.3
2018-07-06T12:19:53.345Z,352.3
2018-07-06T12:24:54.016Z,805
2018-07-06T12:29:53.723Z,805
2018-07-06T12:34:53.426Z,338
2018-07-06T12:39:53.371Z,338
2018-07-06T12:44:54.218Z,722
2018-07-06T12:49:54.016Z,722
2018-07-06T12:54:53.734Z,552
2018-07-06T12:59:53.420Z,552
2018-07-06T13:04:54.365Z,153.2
2018-07-06T13:09:54.236Z,153.2
2018-07-06T13:14:53.911Z,104
2018-07-06T13:19:53.900Z,104
2018-07-06T13:24:53.378Z,353.7
2018-07-06T13:29:54.218Z,353.7
2018-07-06T13:34:54.322Z,101.5
2018-07-06T13:39:54.054Z,101.5
2018-07-06T13:44:53.778Z,86
2018-07-06T13:49:53.732Z,86
2018-07-06T13:54:53.770Z,204
2018-07-06T13:59:54.412Z,204
2018-07-06T14:04:53.556Z,529.8
2018-07-06T14:09:54.506Z,529.8
2018-07-06T14:14:53.875Z,77
2018-07-06T14:19:53.657Z,77
2018-07-06T14:24:53.506Z,189.2
2018-07-06T14:29:53.815Z,189.2
2018-07-06T14:34:53.997Z,99.4
2018-07-06T14:39:53.794Z,99.4
2018-07-06T14:44:53.643Z,69.8
2018-07-06T14:49:54.431Z,69.8
2018-07-06T14:54:54.480Z,71.8
2018-07-06T14:59:54.363Z,71.8
2018-07-06T15:04:54.232Z,107.7
2018-07-06T15:09:54.368Z,107.7
2018-07-06T15:14:53.980Z,561
2018-07-06T15:19:53.737Z,561
2018-07-06T15:24:54.364Z,163
2018-07-06T15:29:53.977Z,163
2018-07-06T15:34:53.698Z,93
2018-07-06T15:39:54.364Z,93
2018-07-06T15:44:53.985Z,105.2
2018-07-06T15:49:53.703Z,105.2
2018-07-06T15:54:54.541Z,57.6
2018-07-06T15:59:54.242Z,57.6
2018-07-06T16:04:54.383Z,61.2
2018-07-06T16:09:54.283Z,61.2
2018-07-06T16:14:53.881Z,116.8
2018-07-06T16:19:53.686Z,116.8
2018-07-06T16:24:54.605Z,54.5
2018-07-06T16:29:54.394Z,54.5
2018-07-06T16:34:54.236Z,89
2018-07-06T16:39:54.034Z,89
2018-07-06T16:44:53.823Z,49
2018-07-06T16:49:54.668Z,49
2018-07-06T16:54:54.212Z,47
2018-07-06T16:59:54.023Z,47
2018-07-06T17:04:53.835Z,46
2018-07-06T17:09:53.965Z,46
2018-07-06T17:14:53.708Z,42
2018-07-06T17:19:54.344Z,42
2018-07-06T17:24:54.048Z,37
2018-07-06T17:29:53.769Z,37
2018-07-06T17:34:54.569Z,34.3
2018-07-06T17:39:54.207Z,34.3
2018-07-06T17:44:53.903Z,29
2018-07-06T17:49:54.663Z,29
2018-07-06T17:54:54.321Z,25
2018-07-06T17:59:53.913Z,25
2018-07-06T18:04:54.854Z,21.7
2018-07-06T18:09:54.504Z,21.7
2018-07-06T18:14:53.898Z,19
2018-07-06T18:19:54.534Z,19
2018-07-06T18:24:54.147Z,18
2018-07-06T18:29:54.756Z,18
2018-07-06T18:34:54.641Z,16
2018-07-06T18:39:54.410Z,16
2018-07-06T18:44:54.066Z,11.3
2018-07-06T18:49:53.905Z,11.3
2018-07-06T18:54:54.595Z,9
2018-07-06T18:59:54.249Z,9
2018-07-06T19:04:54.413Z,7
2018-07-06T19:09:54.615Z,7
2018-07-06T19:14:54.196Z,5
2018-07-06T19:19:53.958Z,5
2018-07-06T19:24:54.649Z,0
2018-07-06T19:29:54.348Z,0
2018-07-06T19:34:53.930Z,0
2018-07-06T19:39:54.830Z,0
2018-07-06T19:44:54.630Z,0
2018-07-06T19:49:54.336Z,0
2018-07-06T19:54:54.050Z,0
2018-07-06T19:59:54.744Z,0
2018-07-06T20:04:54.550Z,0
2018-07-06T20:09:54.253Z,0
2018-07-06T20:14:54.163Z,0
2018-07-06T20:19:54.858Z,0
2018-07-06T20:24:54.522Z,0
2018-07-06T20:29:54.274Z,0
2018-07-06T20:34:53.993Z,0
2018-07-06T20:39:54.639Z,0
2018-07-06T20:44:54.313Z,0
2018-07-06T20:49:54.025Z,0
2018-07-06T20:54:53.937Z,0
2018-07-06T20:59:54.629Z,0
2018-07-06T21:04:54.497Z,0
2018-07-06T21:09:54.320Z,0
2018-07-06T21:14:54.561Z,0
2018-07-06T21:19:54.314Z,0
2018-07-06T21:24:54.023Z,0
2018-07-06T21:29:54.595Z,0
2018-07-06T21:34:54.839Z,0
2018-07-06T21:39:54.570Z,0
2018-07-06T21:44:54.294Z,0
2018-07-06T21:49:54.070Z,0
2018-07-06T21:54:54.043Z,0
2018-07-06T21:59:54.787Z,0
2018-07-06T22:04:55.097Z,0
2018-07-06T22:09:55.026Z,0
2018-07-06T22:14:54.701Z,0
2018-07-06T22:19:54.539Z,0
2018-07-06T22:24:54.281Z,0
2018-07-06T22:29:54.064Z,0
2018-07-06T22:34:54.742Z,0
2018-07-06T22:39:54.425Z,0
2018-07-06T22:44:54.063Z,0
2018-07-06T22:49:54.919Z,0
2018-07-06T22:54:54.631Z,0
2018-07-06T22:59:54.301Z,0
2018-07-06T23:04:54.989Z,0
2018-07-06T23:09:54.689Z,0
2018-07-06T23:14:54.485Z,0
2018-07-06T23:19:54.104Z,0
2018-07-06T23:24:55.094Z,0
2018-07-06T23:29:54.663Z,0
2018-07-06T23:34:54.357Z,0
2018-07-06T23:39:55.108Z,0
2018-07-06T23:44:54.780Z,0
2018-07-06T23:49:54.623Z,0
2018-07-06T23:54:54.864Z,0
2018-07-06T23:59:54.172Z,0
